Flight Track Log - Related Links

Times and Time Zones

All times are in EDT time to prevent confusion due to time zone crossing. See the SWA407 flight status page for this flight to view local times or setup timezone preferences in your user account.

Time Position Orientation Groundspeed Altitude Reporting Facility
EDT Latitude Longitude Course Direction KTS MPH feet Rate Location/Type
Wed 11:03:34 PM 37.6333 -122.3667 345° North 150 173 1,200  Level Northern Cal TRACON
Wed 11:04:34 PM 37.6833 -122.3833 345° North 220 253 3,600 3,098 Climbing Northern Cal TRACON
Wed 11:06:38 PM 37.6789 -122.5406 268° West 283 326 10,700 3,503 Climbing Oakland Center
Wed 11:07:39 PM 37.5869 -122.5467 183° South 325 374 14,400 3,443 Climbing Oakland Center
Wed 11:08:40 PM 37.4908 -122.5508 182° South 347 399 17,700 2,262 Climbing Oakland Center
Wed 11:09:41 PM 37.3858 -122.5544 182° South 373 429 19,000 1,918 Climbing Oakland Center
Wed 11:10:42 PM 37.2772 -122.5581 182° South 387 445 21,600 2,607 Climbing Oakland Center
Wed 11:11:43 PM 37.1653 -122.5614 181° South 401 461 24,300 2,634 Climbing Oakland Center
Wed 11:12:45 PM 37.0481 -122.5694 183° South 419 482 27,000 2,439 Climbing Oakland Center
Wed 11:13:46 PM 36.9264 -122.5644 178° South 444 511 29,300 2,262 Climbing Oakland Center
Wed 11:14:47 PM 36.8186 -122.4908 151° Southeast 455 524 31,600 2,459 Climbing Oakland Center
Wed 11:15:48 PM 36.7058 -122.3697 139° Southeast 449 517 34,300 2,311 Climbing Oakland Center
Wed 11:16:49 PM 36.6119 -122.2689 139° Southeast 447 514 36,300 1,328 Climbing Oakland Center
Wed 11:17:50 PM 36.5156 -122.1689 140° Southeast 452 520 37,000 344 Climbing Oakland Center
Wed 11:18:51 PM 36.4222 -122.0689 139° Southeast 447 514 37,000  Level Oakland Center
Wed 11:19:52 PM 36.3281 -121.9700 140° Southeast 444 511 37,000  Level Oakland Center
Wed 11:20:53 PM 36.2433 -121.8592 133° Southeast 442 509 37,000  Level Oakland Center
Wed 11:21:54 PM 36.1725 -121.7464 128° Southeast 439 505 37,000  Level Oakland Center
Wed 11:22:55 PM 36.0969 -121.6264 128° Southeast 442 509 37,000  Level Oakland Center
Wed 11:23:56 PM 36.0050 -121.4850 129° Southeast 441 507 37,000  Level Oakland Center
Wed 11:24:58 PM 35.9272 -121.3661 129° Southeast 442 509 37,000  Level Oakland Center
Wed 11:25:59 PM 35.8506 -121.2486 129° Southeast 442 509 37,000  Level Oakland Center
Wed 11:27:00 PM 35.7733 -121.1314 129° Southeast 442 509 37,000  Level Oakland Center
Wed 11:28:01 PM 35.6975 -121.0125 128° Southeast 442 509 37,000  Level Oakland Center
Wed 11:29:02 PM 35.6200 -120.8961 129° Southeast 442 509 37,000  Level Oakland Center
Wed 11:30:03 PM 35.5425 -120.7786 129° Southeast 444 511 37,000  Level Oakland Center
Wed 11:31:04 PM 35.4653 -120.6633 129° Southeast 440 506 37,000  Level Oakland Center
Wed 11:32:05 PM 35.3875 -120.5475 129° Southeast 443 510 37,000  Level Oakland Center
Wed 11:32:25 PM 35.3544 -120.4986 130° Southeast 443 510 37,000  Level Los Angeles Center
Wed 11:33:27 PM 35.2758 -120.3778 129° Southeast 450 518 37,000  Level Los Angeles Center
Wed 11:34:29 PM 35.1981 -120.2617 129° Southeast 441 507 37,000  Level Los Angeles Center
Wed 11:35:30 PM 35.1206 -120.1461 129° Southeast 438 504 37,000  Level Los Angeles Center
Wed 11:36:32 PM 35.0353 -120.0194 129° Southeast 440 506 37,000  Level Los Angeles Center
Wed 11:37:34 PM 34.9575 -119.9053 130° Southeast 439 505 37,000  Level Los Angeles Center
Wed 11:38:36 PM 34.8794 -119.7911 130° Southeast 440 506 37,000  Level Los Angeles Center
Wed 11:39:38 PM 34.8017 -119.6764 130° Southeast 439 505 37,000  Level Los Angeles Center
Wed 11:40:39 PM 34.7089 -119.5392 129° Southeast 440 506 37,000  Level Los Angeles Center
Wed 11:41:41 PM 34.6292 -119.4247 130° Southeast 441 507 37,000  Level Los Angeles Center
Wed 11:42:43 PM 34.5517 -119.3172 131° Southeast 439 505 37,000  Level Los Angeles Center
Wed 11:43:57 PM 34.4581 -119.1814 130° Southeast 438 504 37,000  Level Los Angeles Center
Wed 11:44:59 PM 34.3797 -119.0694 130° Southeast 437 503 37,000  Level Los Angeles Center
Wed 11:46:01 PM 34.3011 -118.9567 130° Southeast 438 504 37,000  Level Los Angeles Center
Wed 11:47:03 PM 34.2072 -118.8225 130° Southeast 436 502 37,000  Level Los Angeles Center
Wed 11:48:04 PM 34.1283 -118.7103 130° Southeast 438 504 37,000  Level Los Angeles Center
Wed 11:49:06 PM 34.0500 -118.5983 130° Southeast 436 502 37,000 -387 Level Los Angeles Center
Wed 11:50:08 PM 33.9703 -118.4853 130° Southeast 441 507 36,200 -829 Descending Los Angeles Center
Wed 11:51:09 PM 33.8872 -118.3711 131° Southeast 448 516 35,300 -878 Descending Los Angeles Center
Wed 11:52:11 PM 33.7967 -118.2611 135° Southeast 457 526 34,400 -1,742 Descending Los Angeles Center
Wed 11:53:13 PM 33.7067 -118.1411 132° Southeast 458 527 31,700 -2,585 Descending Los Angeles Center
Wed 11:54:14 PM 33.6200 -118.0314 133° Southeast 451 519 29,100 -2,537 Descending Los Angeles Center
Wed 11:55:16 PM 33.5347 -117.9258 134° Southeast 441 507 26,500 -2,439 Descending Los Angeles Center
Wed 11:56:17 PM 33.4553 -117.8247 133° Southeast 419 482 24,100 -2,625 Descending Los Angeles Center
Wed 11:56:36 PM 33.4167 -117.7833 138° Southeast 412 474 23,000 -2,806 Descending Southern California TRACON
Wed 11:57:19 PM 33.3614 -117.7061 131° Southeast 409 471 21,200 -2,421 Descending Los Angeles Center
Wed 11:58:30 PM 33.2667 -117.6000 137° Southeast 390 449 18,400 -2,290 Descending Southern California TRACON
Wed 11:59:30 PM 33.2000 -117.5167 134° Southeast 384 442 16,200 -2,158 Descending Southern California TRACON
Thu 12:00:24 AM 33.1244 -117.4572 147° Southeast 372 428 14,300 -2,400 Descending Los Angeles Center
Thu 12:01:25 AM 33.0431 -117.3925 146° Southeast 359 413 11,600 -2,146 Descending Los Angeles Center
Thu 12:02:27 AM 32.9689 -117.3353 147° Southeast 326 375 9,900 -1,984 Descending Los Angeles Center
Thu 12:03:29 AM 32.9114 -117.2708 137° Southeast 292 336 7,500 -2,341 Descending Los Angeles Center
Thu 12:04:30 AM 32.8464 -117.1928 135° Southeast 279 321 5,100 -1,268 Descending Los Angeles Center
Thu 12:05:32 AM 32.7981 -117.1375 136° Southeast 269 310 4,900 -50 Descending Los Angeles Center
Thu 12:06:31 AM 32.7667 -117.0500 113° Southeast 224 258 5,000 50 Climbing Southern California TRACON
Thu 12:07:31 AM 32.7500 -116.9833 107° East 217 250 5,000 -496 Level Southern California TRACON
Thu 12:08:32 AM 32.7000 -117.0000 196° South 254 292 4,000 -1,289 Descending Southern California TRACON
Thu 12:09:32 AM 32.7000 -117.0667 270° West 202 232 2,400 -1,381 Descending Southern California TRACON
Thu 12:10:38 AM 32.7167 -117.1167 292° West 156 180 1,100 -905 Descending Southern California TRACON
Thu 12:11:38 AM 32.7333 -117.1667 292° West 124 143 500 -435 Descending Southern California TRACON
Thu 12:12:42 AM 32.7369 -117.2008 277° West 146 168 200 -281 Descending Los Angeles Center
Thu 12:14:00 AM 32.7336 -117.1897 235° Southwest  Level Estimated

Login

Don't have an account? Register now (free) for customized features, flight alerts, and more!